sensor_id;sensor_type;location;lat;lon;timestamp;temperature;humidity
10171;DHT22;5127;50.922;6.988;2022-08-18T00:02:02;23.60;56.70
10171;DHT22;5127;50.922;6.988;2022-08-18T00:04:31;23.60;57.00
10171;DHT22;5127;50.922;6.988;2022-08-18T00:07:00;23.50;56.70
10171;DHT22;5127;50.922;6.988;2022-08-18T00:09:28;23.50;56.50
10171;DHT22;5127;50.922;6.988;2022-08-18T00:11:56;23.50;56.60
10171;DHT22;5127;50.922;6.988;2022-08-18T00:14:24;23.40;56.60
10171;DHT22;5127;50.922;6.988;2022-08-18T00:16:53;23.40;56.70
10171;DHT22;5127;50.922;6.988;2022-08-18T00:19:21;23.40;56.90
10171;DHT22;5127;50.922;6.988;2022-08-18T00:21:49;23.30;56.90
10171;DHT22;5127;50.922;6.988;2022-08-18T00:24:16;23.30;56.90
10171;DHT22;5127;50.922;6.988;2022-08-18T00:26:43;23.30;57.20
10171;DHT22;5127;50.922;6.988;2022-08-18T00:29:10;23.30;57.10
10171;DHT22;5127;50.922;6.988;2022-08-18T00:31:39;23.30;57.20
10171;DHT22;5127;50.922;6.988;2022-08-18T00:34:06;23.20;57.30
10171;DHT22;5127;50.922;6.988;2022-08-18T00:36:33;23.20;57.20
10171;DHT22;5127;50.922;6.988;2022-08-18T00:39:01;23.20;57.50
10171;DHT22;5127;50.922;6.988;2022-08-18T00:41:28;23.20;57.70
10171;DHT22;5127;50.922;6.988;2022-08-18T00:43:56;23.20;57.90
10171;DHT22;5127;50.922;6.988;2022-08-18T00:46:34;23.20;58.00
10171;DHT22;5127;50.922;6.988;2022-08-18T00:49:04;23.20;58.80
10171;DHT22;5127;50.922;6.988;2022-08-18T00:51:41;23.20;58.40
10171;DHT22;5127;50.922;6.988;2022-08-18T00:54:12;23.20;58.50
10171;DHT22;5127;50.922;6.988;2022-08-18T00:56:44;23.20;58.60
10171;DHT22;5127;50.922;6.988;2022-08-18T00:59:16;23.20;58.70
10171;DHT22;5127;50.922;6.988;2022-08-18T01:01:48;23.20;58.80
10171;DHT22;5127;50.922;6.988;2022-08-18T01:04:21;23.20;58.60
10171;DHT22;5127;50.922;6.988;2022-08-18T01:06:54;23.20;58.80
10171;DHT22;5127;50.922;6.988;2022-08-18T01:09:22;23.20;58.60
10171;DHT22;5127;50.922;6.988;2022-08-18T01:11:50;23.20;58.20
10171;DHT22;5127;50.922;6.988;2022-08-18T01:14:18;23.10;58.30
10171;DHT22;5127;50.922;6.988;2022-08-18T01:16:46;23.10;58.50
10171;DHT22;5127;50.922;6.988;2022-08-18T01:19:33;23.10;59.20
10171;DHT22;5127;50.922;6.988;2022-08-18T01:22:23;23.10;58.50
10171;DHT22;5127;50.922;6.988;2022-08-18T01:24:56;23.10;58.90
10171;DHT22;5127;50.922;6.988;2022-08-18T01:27:38;23.00;58.70
10171;DHT22;5127;50.922;6.988;2022-08-18T01:30:09;23.00;58.30
10171;DHT22;5127;50.922;6.988;2022-08-18T01:32:38;23.00;58.60
10171;DHT22;5127;50.922;6.988;2022-08-18T01:35:07;23.00;59.10
10171;DHT22;5127;50.922;6.988;2022-08-18T01:37:36;22.90;58.70
10171;DHT22;5127;50.922;6.988;2022-08-18T01:40:07;22.80;58.40
10171;DHT22;5127;50.922;6.988;2022-08-18T01:42:36;22.90;58.80
10171;DHT22;5127;50.922;6.988;2022-08-18T01:45:05;22.90;58.60
10171;DHT22;5127;50.922;6.988;2022-08-18T01:47:33;22.80;58.60
10171;DHT22;5127;50.922;6.988;2022-08-18T01:50:02;22.90;58.80
10171;DHT22;5127;50.922;6.988;2022-08-18T01:52:30;22.80;58.70
10171;DHT22;5127;50.922;6.988;2022-08-18T01:54:58;22.80;58.80
10171;DHT22;5127;50.922;6.988;2022-08-18T01:57:27;22.80;58.80
10171;DHT22;5127;50.922;6.988;2022-08-18T01:59:55;22.80;59.00
10171;DHT22;5127;50.922;6.988;2022-08-18T02:02:28;22.70;58.80
10171;DHT22;5127;50.922;6.988;2022-08-18T02:05:00;22.80;59.10
10171;DHT22;5127;50.922;6.988;2022-08-18T02:07:28;22.70;59.00
10171;DHT22;5127;50.922;6.988;2022-08-18T02:09:56;22.70;58.80
10171;DHT22;5127;50.922;6.988;2022-08-18T02:12:23;22.60;58.80
10171;DHT22;5127;50.922;6.988;2022-08-18T02:14:52;22.60;58.80
10171;DHT22;5127;50.922;6.988;2022-08-18T02:17:19;22.60;59.10
10171;DHT22;5127;50.922;6.988;2022-08-18T02:19:47;22.60;59.00
10171;DHT22;5127;50.922;6.988;2022-08-18T02:22:18;22.50;59.10
10171;DHT22;5127;50.922;6.988;2022-08-18T02:24:46;22.50;59.30
10171;DHT22;5127;50.922;6.988;2022-08-18T02:27:16;22.50;59.00
10171;DHT22;5127;50.922;6.988;2022-08-18T02:29:43;22.50;59.20
10171;DHT22;5127;50.922;6.988;2022-08-18T02:32:12;22.40;59.10
10171;DHT22;5127;50.922;6.988;2022-08-18T02:34:39;22.40;59.40
10171;DHT22;5127;50.922;6.988;2022-08-18T02:37:07;22.40;59.30
10171;DHT22;5127;50.922;6.988;2022-08-18T02:39:36;22.40;59.50
10171;DHT22;5127;50.922;6.988;2022-08-18T02:42:04;22.40;59.60
10171;DHT22;5127;50.922;6.988;2022-08-18T02:44:32;22.30;59.50
10171;DHT22;5127;50.922;6.988;2022-08-18T02:47:00;22.30;59.40
10171;DHT22;5127;50.922;6.988;2022-08-18T02:49:29;22.30;59.40
10171;DHT22;5127;50.922;6.988;2022-08-18T02:51:56;22.20;59.50
10171;DHT22;5127;50.922;6.988;2022-08-18T02:54:24;22.30;59.70
10171;DHT22;5127;50.922;6.988;2022-08-18T02:56:52;22.20;59.60
10171;DHT22;5127;50.922;6.988;2022-08-18T02:59:21;22.20;59.60
10171;DHT22;5127;50.922;6.988;2022-08-18T03:01:51;22.20;60.00
10171;DHT22;5127;50.922;6.988;2022-08-18T03:04:20;22.20;59.90
10171;DHT22;5127;50.922;6.988;2022-08-18T03:06:49;22.10;59.80
10171;DHT22;5127;50.922;6.988;2022-08-18T03:09:17;22.10;59.80
10171;DHT22;5127;50.922;6.988;2022-08-18T03:11:45;22.10;59.80
10171;DHT22;5127;50.922;6.988;2022-08-18T03:14:13;22.10;59.80
10171;DHT22;5127;50.922;6.988;2022-08-18T03:16:44;22.10;59.90
10171;DHT22;5127;50.922;6.988;2022-08-18T03:19:12;22.00;60.00
10171;DHT22;5127;50.922;6.988;2022-08-18T03:21:42;22.00;59.80
10171;DHT22;5127;50.922;6.988;2022-08-18T03:24:12;22.00;59.90
10171;DHT22;5127;50.922;6.988;2022-08-18T03:26:41;22.00;60.20
10171;DHT22;5127;50.922;6.988;2022-08-18T03:29:10;21.90;60.00
10171;DHT22;5127;50.922;6.988;2022-08-18T03:31:38;22.00;60.00
10171;DHT22;5127;50.922;6.988;2022-08-18T03:34:11;21.80;60.00
10171;DHT22;5127;50.922;6.988;2022-08-18T03:36:38;21.80;60.10
10171;DHT22;5127;50.922;6.988;2022-08-18T03:39:09;21.70;59.90
10171;DHT22;5127;50.922;6.988;2022-08-18T03:41:40;21.70;60.20
10171;DHT22;5127;50.922;6.988;2022-08-18T03:44:08;21.70;60.30
10171;DHT22;5127;50.922;6.988;2022-08-18T03:46:36;21.70;59.90
10171;DHT22;5127;50.922;6.988;2022-08-18T03:49:03;21.60;59.80
10171;DHT22;5127;50.922;6.988;2022-08-18T03:51:31;21.60;59.80
10171;DHT22;5127;50.922;6.988;2022-08-18T03:54:01;21.50;60.00
10171;DHT22;5127;50.922;6.988;2022-08-18T03:56:30;21.50;60.80
10171;DHT22;5127;50.922;6.988;2022-08-18T03:59:03;21.40;60.00
10171;DHT22;5127;50.922;6.988;2022-08-18T04:01:36;21.40;60.50
10171;DHT22;5127;50.922;6.988;2022-08-18T04:04:07;21.40;60.50
10171;DHT22;5127;50.922;6.988;2022-08-18T04:06:37;21.40;60.50
10171;DHT22;5127;50.922;6.988;2022-08-18T04:09:07;21.30;60.40
10171;DHT22;5127;50.922;6.988;2022-08-18T04:11:35;21.30;60.40
10171;DHT22;5127;50.922;6.988;2022-08-18T04:14:05;21.30;60.70
10171;DHT22;5127;50.922;6.988;2022-08-18T04:16:32;21.30;61.00
10171;DHT22;5127;50.922;6.988;2022-08-18T04:19:01;21.20;60.80
10171;DHT22;5127;50.922;6.988;2022-08-18T04:21:29;21.30;61.10
10171;DHT22;5127;50.922;6.988;2022-08-18T04:23:58;21.20;61.10
10171;DHT22;5127;50.922;6.988;2022-08-18T04:26:28;21.20;61.20
10171;DHT22;5127;50.922;6.988;2022-08-18T04:28:55;21.20;61.30
10171;DHT22;5127;50.922;6.988;2022-08-18T04:31:26;21.20;61.50
10171;DHT22;5127;50.922;6.988;2022-08-18T04:34:00;21.30;62.10
10171;DHT22;5127;50.922;6.988;2022-08-18T04:36:30;21.30;62.00
10171;DHT22;5127;50.922;6.988;2022-08-18T04:38:59;21.30;62.00
10171;DHT22;5127;50.922;6.988;2022-08-18T04:41:27;21.40;62.20
10171;DHT22;5127;50.922;6.988;2022-08-18T04:43:57;21.50;62.40
10171;DHT22;5127;50.922;6.988;2022-08-18T04:46:27;21.50;62.70
10171;DHT22;5127;50.922;6.988;2022-08-18T04:48:57;21.50;62.70
10171;DHT22;5127;50.922;6.988;2022-08-18T04:51:27;21.60;62.70
10171;DHT22;5127;50.922;6.988;2022-08-18T04:53:55;21.60;62.70
10171;DHT22;5127;50.922;6.988;2022-08-18T04:56:23;21.70;62.60
10171;DHT22;5127;50.922;6.988;2022-08-18T04:58:53;21.70;62.80
10171;DHT22;5127;50.922;6.988;2022-08-18T05:01:24;21.80;62.90
10171;DHT22;5127;50.922;6.988;2022-08-18T05:03:54;21.70;62.80
10171;DHT22;5127;50.922;6.988;2022-08-18T05:06:23;21.90;63.00
10171;DHT22;5127;50.922;6.988;2022-08-18T05:08:51;21.90;62.60
10171;DHT22;5127;50.922;6.988;2022-08-18T05:11:19;21.90;62.60
10171;DHT22;5127;50.922;6.988;2022-08-18T05:13:47;22.00;62.70
10171;DHT22;5127;50.922;6.988;2022-08-18T05:16:15;21.90;62.60
10171;DHT22;5127;50.922;6.988;2022-08-18T05:18:42;22.00;62.90
10171;DHT22;5127;50.922;6.988;2022-08-18T05:21:10;22.00;62.50
10171;DHT22;5127;50.922;6.988;2022-08-18T05:23:41;22.00;62.70
10171;DHT22;5127;50.922;6.988;2022-08-18T05:26:09;22.00;62.60
10171;DHT22;5127;50.922;6.988;2022-08-18T05:28:38;22.00;62.70
10171;DHT22;5127;50.922;6.988;2022-08-18T05:31:07;22.00;62.70
10171;DHT22;5127;50.922;6.988;2022-08-18T05:33:34;22.00;62.80
10171;DHT22;5127;50.922;6.988;2022-08-18T05:36:05;22.00;62.70
10171;DHT22;5127;50.922;6.988;2022-08-18T05:38:46;22.00;62.90
10171;DHT22;5127;50.922;6.988;2022-08-18T05:41:21;22.00;63.50
10171;DHT22;5127;50.922;6.988;2022-08-18T05:43:51;22.00;63.20
10171;DHT22;5127;50.922;6.988;2022-08-18T05:46:23;22.10;63.00
10171;DHT22;5127;50.922;6.988;2022-08-18T05:48:51;22.10;63.40
10171;DHT22;5127;50.922;6.988;2022-08-18T05:51:25;22.00;63.10
10171;DHT22;5127;50.922;6.988;2022-08-18T05:53:55;22.10;63.70
10171;DHT22;5127;50.922;6.988;2022-08-18T05:56:41;22.10;63.40
10171;DHT22;5127;50.922;6.988;2022-08-18T05:59:22;22.10;63.30
10171;DHT22;5127;50.922;6.988;2022-08-18T06:01:55;22.10;63.70
10171;DHT22;5127;50.922;6.988;2022-08-18T06:04:42;22.10;63.50
10171;DHT22;5127;50.922;6.988;2022-08-18T06:07:13;22.10;64.00
10171;DHT22;5127;50.922;6.988;2022-08-18T06:09:47;22.10;63.50
10171;DHT22;5127;50.922;6.988;2022-08-18T06:12:26;22.20;63.90
10171;DHT22;5127;50.922;6.988;2022-08-18T06:15:02;22.20;64.10
10171;DHT22;5127;50.922;6.988;2022-08-18T06:17:50;22.30;64.00
10171;DHT22;5127;50.922;6.988;2022-08-18T06:20:25;22.30;63.80
10171;DHT22;5127;50.922;6.988;2022-08-18T06:23:01;22.30;63.40
10171;DHT22;5127;50.922;6.988;2022-08-18T06:25:36;22.40;63.60
10171;DHT22;5127;50.922;6.988;2022-08-18T06:28:08;22.40;63.50
10171;DHT22;5127;50.922;6.988;2022-08-18T06:30:52;22.40;63.30
10171;DHT22;5127;50.922;6.988;2022-08-18T06:33:41;22.50;63.90
10171;DHT22;5127;50.922;6.988;2022-08-18T06:36:18;22.50;63.70
10171;DHT22;5127;50.922;6.988;2022-08-18T06:38:57;22.50;63.50
10171;DHT22;5127;50.922;6.988;2022-08-18T06:41:36;22.60;63.70
10171;DHT22;5127;50.922;6.988;2022-08-18T06:44:08;22.60;63.60
10171;DHT22;5127;50.922;6.988;2022-08-18T06:46:40;22.60;63.30
10171;DHT22;5127;50.922;6.988;2022-08-18T06:49:10;22.70;63.60
10171;DHT22;5127;50.922;6.988;2022-08-18T06:51:38;22.70;63.50
10171;DHT22;5127;50.922;6.988;2022-08-18T06:54:12;22.80;63.60
10171;DHT22;5127;50.922;6.988;2022-08-18T06:56:54;22.90;63.50
10171;DHT22;5127;50.922;6.988;2022-08-18T06:59:24;22.90;63.40
10171;DHT22;5127;50.922;6.988;2022-08-18T07:01:56;23.00;63.30
10171;DHT22;5127;50.922;6.988;2022-08-18T07:04:32;23.10;64.10
10171;DHT22;5127;50.922;6.988;2022-08-18T07:07:18;23.10;63.20
10171;DHT22;5127;50.922;6.988;2022-08-18T07:09:46;23.20;63.30
10171;DHT22;5127;50.922;6.988;2022-08-18T07:12:21;23.20;62.90
10171;DHT22;5127;50.922;6.988;2022-08-18T07:14:51;23.20;63.10
10171;DHT22;5127;50.922;6.988;2022-08-18T07:17:22;23.30;62.90
10171;DHT22;5127;50.922;6.988;2022-08-18T07:19:58;23.30;62.80
10171;DHT22;5127;50.922;6.988;2022-08-18T07:22:26;23.30;63.00
10171;DHT22;5127;50.922;6.988;2022-08-18T07:24:55;23.40;62.70
10171;DHT22;5127;50.922;6.988;2022-08-18T07:27:42;23.50;62.80
10171;DHT22;5127;50.922;6.988;2022-08-18T07:30:13;23.40;62.90
10171;DHT22;5127;50.922;6.988;2022-08-18T07:32:44;23.40;62.50
10171;DHT22;5127;50.922;6.988;2022-08-18T07:35:17;23.50;63.50
10171;DHT22;5127;50.922;6.988;2022-08-18T07:37:50;23.50;62.60
10171;DHT22;5127;50.922;6.988;2022-08-18T07:40:23;23.50;62.50
10171;DHT22;5127;50.922;6.988;2022-08-18T07:42:57;23.50;62.40
10171;DHT22;5127;50.922;6.988;2022-08-18T07:45:31;23.50;62.40
10171;DHT22;5127;50.922;6.988;2022-08-18T07:48:03;23.60;62.40
10171;DHT22;5127;50.922;6.988;2022-08-18T07:50:37;23.60;62.40
10171;DHT22;5127;50.922;6.988;2022-08-18T07:53:12;23.60;62.30
10171;DHT22;5127;50.922;6.988;2022-08-18T07:55:44;23.70;62.20
10171;DHT22;5127;50.922;6.988;2022-08-18T07:58:21;23.70;62.10
10171;DHT22;5127;50.922;6.988;2022-08-18T08:00:55;23.70;62.10
10171;DHT22;5127;50.922;6.988;2022-08-18T08:03:33;23.70;61.90
10171;DHT22;5127;50.922;6.988;2022-08-18T08:06:06;23.70;61.90
10171;DHT22;5127;50.922;6.988;2022-08-18T08:08:41;23.80;61.80
10171;DHT22;5127;50.922;6.988;2022-08-18T08:11:16;23.80;61.60
10171;DHT22;5127;50.922;6.988;2022-08-18T08:13:54;23.80;61.70
10171;DHT22;5127;50.922;6.988;2022-08-18T08:16:32;23.80;61.70
10171;DHT22;5127;50.922;6.988;2022-08-18T08:19:07;23.80;61.60
10171;DHT22;5127;50.922;6.988;2022-08-18T08:21:42;23.80;61.60
10171;DHT22;5127;50.922;6.988;2022-08-18T08:24:17;23.70;61.50
10171;DHT22;5127;50.922;6.988;2022-08-18T08:26:50;23.80;61.50
10171;DHT22;5127;50.922;6.988;2022-08-18T08:29:28;23.80;61.60
10171;DHT22;5127;50.922;6.988;2022-08-18T08:32:04;23.80;61.60
10171;DHT22;5127;50.922;6.988;2022-08-18T08:34:37;23.80;61.60
10171;DHT22;5127;50.922;6.988;2022-08-18T08:37:09;23.80;61.60
10171;DHT22;5127;50.922;6.988;2022-08-18T08:39:44;23.90;61.60
10171;DHT22;5127;50.922;6.988;2022-08-18T08:42:17;24.00;61.70
10171;DHT22;5127;50.922;6.988;2022-08-18T08:44:51;24.00;61.60
10171;DHT22;5127;50.922;6.988;2022-08-18T08:47:23;24.00;61.50
10171;DHT22;5127;50.922;6.988;2022-08-18T08:49:54;24.00;61.30
10171;DHT22;5127;50.922;6.988;2022-08-18T08:52:26;24.10;61.40
10171;DHT22;5127;50.922;6.988;2022-08-18T08:54:58;24.10;61.30
10171;DHT22;5127;50.922;6.988;2022-08-18T08:57:31;24.10;61.20
10171;DHT22;5127;50.922;6.988;2022-08-18T09:00:05;24.10;61.20
10171;DHT22;5127;50.922;6.988;2022-08-18T09:02:48;24.10;61.20
10171;DHT22;5127;50.922;6.988;2022-08-18T09:05:21;24.30;61.40
10171;DHT22;5127;50.922;6.988;2022-08-18T09:08:12;24.20;61.30
10171;DHT22;5127;50.922;6.988;2022-08-18T09:11:05;24.20;61.40
10171;DHT22;5127;50.922;6.988;2022-08-18T09:16:53;24.50;61.70
10171;DHT22;5127;50.922;6.988;2022-08-18T09:19:34;24.60;61.60
10171;DHT22;5127;50.922;6.988;2022-08-18T09:22:11;24.70;61.50
10171;DHT22;5127;50.922;6.988;2022-08-18T09:24:44;24.80;61.30
10171;DHT22;5127;50.922;6.988;2022-08-18T09:27:15;24.80;60.80
10171;DHT22;5127;50.922;6.988;2022-08-18T09:29:52;24.90;60.70
10171;DHT22;5127;50.922;6.988;2022-08-18T09:32:59;24.90;60.60
10171;DHT22;5127;50.922;6.988;2022-08-18T09:35:44;25.00;60.40
10171;DHT22;5127;50.922;6.988;2022-08-18T09:38:15;25.10;60.20
10171;DHT22;5127;50.922;6.988;2022-08-18T09:41:07;25.00;60.00
10171;DHT22;5127;50.922;6.988;2022-08-18T09:43:57;25.10;60.00
10171;DHT22;5127;50.922;6.988;2022-08-18T09:46:50;25.20;60.00
10171;DHT22;5127;50.922;6.988;2022-08-18T09:49:40;25.20;59.80
10171;DHT22;5127;50.922;6.988;2022-08-18T09:55:35;25.40;59.90
10171;DHT22;5127;50.922;6.988;2022-08-18T09:58:14;25.40;59.70
10171;DHT22;5127;50.922;6.988;2022-08-18T10:00:41;25.50;59.50
10171;DHT22;5127;50.922;6.988;2022-08-18T10:03:18;25.60;59.60
10171;DHT22;5127;50.922;6.988;2022-08-18T10:06:04;25.70;59.30
10171;DHT22;5127;50.922;6.988;2022-08-18T10:09:03;25.80;59.10
10171;DHT22;5127;50.922;6.988;2022-08-18T10:11:42;25.90;59.10
10171;DHT22;5127;50.922;6.988;2022-08-18T10:14:33;26.00;58.90
10171;DHT22;5127;50.922;6.988;2022-08-18T10:17:11;26.10;58.90
10171;DHT22;5127;50.922;6.988;2022-08-18T10:19:49;26.20;58.70
10171;DHT22;5127;50.922;6.988;2022-08-18T10:22:36;26.30;58.40
10171;DHT22;5127;50.922;6.988;2022-08-18T10:25:05;26.40;58.30
10171;DHT22;5127;50.922;6.988;2022-08-18T10:27:47;26.50;58.50
10171;DHT22;5127;50.922;6.988;2022-08-18T10:30:45;26.60;58.10
10171;DHT22;5127;50.922;6.988;2022-08-18T10:36:50;26.90;57.80
10171;DHT22;5127;50.922;6.988;2022-08-18T10:39:22;27.10;57.80
10171;DHT22;5127;50.922;6.988;2022-08-18T10:41:56;27.20;57.70
10171;DHT22;5127;50.922;6.988;2022-08-18T10:44:26;27.30;57.30
10171;DHT22;5127;50.922;6.988;2022-08-18T10:46:57;27.50;57.40
10171;DHT22;5127;50.922;6.988;2022-08-18T10:49:28;27.60;57.10
10171;DHT22;5127;50.922;6.988;2022-08-18T10:55:25;27.80;56.20
10171;DHT22;5127;50.922;6.988;2022-08-18T10:58:08;27.90;55.90
10171;DHT22;5127;50.922;6.988;2022-08-18T11:00:54;28.00;55.70
10171;DHT22;5127;50.922;6.988;2022-08-18T11:03:41;28.00;55.60
10171;DHT22;5127;50.922;6.988;2022-08-18T11:06:17;28.10;55.20
10171;DHT22;5127;50.922;6.988;2022-08-18T11:08:49;28.10;54.80
10171;DHT22;5127;50.922;6.988;2022-08-18T11:11:22;28.20;54.80
10171;DHT22;5127;50.922;6.988;2022-08-18T11:13:55;28.20;54.50
10171;DHT22;5127;50.922;6.988;2022-08-18T11:16:35;28.30;54.50
10171;DHT22;5127;50.922;6.988;2022-08-18T11:19:07;28.40;54.30
10171;DHT22;5127;50.922;6.988;2022-08-18T11:21:40;28.40;54.40
10171;DHT22;5127;50.922;6.988;2022-08-18T11:24:12;28.50;54.70
10171;DHT22;5127;50.922;6.988;2022-08-18T11:26:43;28.50;53.80
10171;DHT22;5127;50.922;6.988;2022-08-18T11:29:27;28.50;53.60
10171;DHT22;5127;50.922;6.988;2022-08-18T11:31:58;28.50;53.30
10171;DHT22;5127;50.922;6.988;2022-08-18T11:34:34;28.60;53.40
10171;DHT22;5127;50.922;6.988;2022-08-18T11:37:05;28.60;52.90
10171;DHT22;5127;50.922;6.988;2022-08-18T11:39:41;28.60;53.00
10171;DHT22;5127;50.922;6.988;2022-08-18T11:42:14;28.60;52.50
10171;DHT22;5127;50.922;6.988;2022-08-18T11:44:42;28.60;52.60
10171;DHT22;5127;50.922;6.988;2022-08-18T11:47:14;28.60;52.80
10171;DHT22;5127;50.922;6.988;2022-08-18T11:49:55;28.70;52.70
10171;DHT22;5127;50.922;6.988;2022-08-18T11:52:27;28.50;52.30
10171;DHT22;5127;50.922;6.988;2022-08-18T11:54:59;28.60;52.60
10171;DHT22;5127;50.922;6.988;2022-08-18T11:57:40;28.60;52.50
10171;DHT22;5127;50.922;6.988;2022-08-18T12:00:40;28.60;52.20
10171;DHT22;5127;50.922;6.988;2022-08-18T12:03:15;28.60;52.20
10171;DHT22;5127;50.922;6.988;2022-08-18T12:05:47;28.60;52.30
10171;DHT22;5127;50.922;6.988;2022-08-18T12:08:20;28.60;52.20
10171;DHT22;5127;50.922;6.988;2022-08-18T12:10:59;28.60;52.00
10171;DHT22;5127;50.922;6.988;2022-08-18T12:13:29;28.60;52.10
10171;DHT22;5127;50.922;6.988;2022-08-18T12:16:12;28.60;51.90
10171;DHT22;5127;50.922;6.988;2022-08-18T12:18:40;28.50;51.80
10171;DHT22;5127;50.922;6.988;2022-08-18T12:21:08;28.50;51.80
10171;DHT22;5127;50.922;6.988;2022-08-18T12:23:39;28.40;51.70
10171;DHT22;5127;50.922;6.988;2022-08-18T12:26:07;28.40;51.70
10171;DHT22;5127;50.922;6.988;2022-08-18T12:28:36;28.40;51.80
10171;DHT22;5127;50.922;6.988;2022-08-18T12:31:05;28.40;51.90
10171;DHT22;5127;50.922;6.988;2022-08-18T12:33:33;28.40;51.90
10171;DHT22;5127;50.922;6.988;2022-08-18T12:36:01;28.40;51.90
10171;DHT22;5127;50.922;6.988;2022-08-18T12:38:29;28.40;51.80
10171;DHT22;5127;50.922;6.988;2022-08-18T12:40:57;28.50;51.90
10171;DHT22;5127;50.922;6.988;2022-08-18T12:43:25;28.50;51.90
10171;DHT22;5127;50.922;6.988;2022-08-18T12:45:53;28.60;51.90
10171;DHT22;5127;50.922;6.988;2022-08-18T12:48:21;28.60;52.10
10171;DHT22;5127;50.922;6.988;2022-08-18T12:50:48;28.70;52.10
10171;DHT22;5127;50.922;6.988;2022-08-18T12:53:15;28.80;51.90
10171;DHT22;5127;50.922;6.988;2022-08-18T12:55:43;28.80;51.70
10171;DHT22;5127;50.922;6.988;2022-08-18T12:58:10;29.00;51.60
10171;DHT22;5127;50.922;6.988;2022-08-18T13:00:38;29.10;51.40
10171;DHT22;5127;50.922;6.988;2022-08-18T13:03:07;29.20;51.30
10171;DHT22;5127;50.922;6.988;2022-08-18T13:05:35;29.20;51.00
10171;DHT22;5127;50.922;6.988;2022-08-18T13:08:04;29.20;50.90
10171;DHT22;5127;50.922;6.988;2022-08-18T13:10:32;29.20;50.80
10171;DHT22;5127;50.922;6.988;2022-08-18T13:12:59;29.20;50.70
10171;DHT22;5127;50.922;6.988;2022-08-18T13:15:27;29.20;50.60
10171;DHT22;5127;50.922;6.988;2022-08-18T13:17:54;29.20;50.50
10171;DHT22;5127;50.922;6.988;2022-08-18T13:20:23;29.20;50.30
10171;DHT22;5127;50.922;6.988;2022-08-18T13:22:50;29.00;50.30
10171;DHT22;5127;50.922;6.988;2022-08-18T13:25:18;29.00;50.30
10171;DHT22;5127;50.922;6.988;2022-08-18T13:27:46;29.00;50.30
10171;DHT22;5127;50.922;6.988;2022-08-18T13:30:17;28.90;50.40
10171;DHT22;5127;50.922;6.988;2022-08-18T13:32:44;28.90;50.50
10171;DHT22;5127;50.922;6.988;2022-08-18T13:35:12;28.80;51.10
10171;DHT22;5127;50.922;6.988;2022-08-18T13:37:40;28.80;50.50
10171;DHT22;5127;50.922;6.988;2022-08-18T13:40:09;28.80;50.50
10171;DHT22;5127;50.922;6.988;2022-08-18T13:42:42;28.80;50.60
10171;DHT22;5127;50.922;6.988;2022-08-18T13:45:11;28.80;50.60
10171;DHT22;5127;50.922;6.988;2022-08-18T13:47:39;28.90;50.50
10171;DHT22;5127;50.922;6.988;2022-08-18T13:50:07;28.90;50.50
10171;DHT22;5127;50.922;6.988;2022-08-18T13:52:36;29.00;50.50
10171;DHT22;5127;50.922;6.988;2022-08-18T13:55:08;29.00;50.40
10171;DHT22;5127;50.922;6.988;2022-08-18T13:57:36;29.00;50.10
10171;DHT22;5127;50.922;6.988;2022-08-18T14:00:05;29.00;50.00
10171;DHT22;5127;50.922;6.988;2022-08-18T14:02:36;29.10;50.00
10171;DHT22;5127;50.922;6.988;2022-08-18T14:05:05;29.10;50.10
10171;DHT22;5127;50.922;6.988;2022-08-18T14:07:34;29.20;50.10
10171;DHT22;5127;50.922;6.988;2022-08-18T14:10:02;29.20;49.80
10171;DHT22;5127;50.922;6.988;2022-08-18T14:12:30;29.20;49.60
10171;DHT22;5127;50.922;6.988;2022-08-18T14:14:59;29.20;49.60
10171;DHT22;5127;50.922;6.988;2022-08-18T14:17:27;29.30;49.50
10171;DHT22;5127;50.922;6.988;2022-08-18T14:19:54;29.30;49.50
10171;DHT22;5127;50.922;6.988;2022-08-18T14:22:39;29.30;49.50
10171;DHT22;5127;50.922;6.988;2022-08-18T14:25:24;29.30;49.20
10171;DHT22;5127;50.922;6.988;2022-08-18T14:28:10;29.30;49.00
10171;DHT22;5127;50.922;6.988;2022-08-18T14:30:38;29.30;48.70
10171;DHT22;5127;50.922;6.988;2022-08-18T14:33:06;29.40;48.70
10171;DHT22;5127;50.922;6.988;2022-08-18T14:35:35;29.40;48.70
10171;DHT22;5127;50.922;6.988;2022-08-18T14:38:03;29.40;48.70
10171;DHT22;5127;50.922;6.988;2022-08-18T14:40:32;29.40;48.60
10171;DHT22;5127;50.922;6.988;2022-08-18T14:42:59;29.40;48.50
10171;DHT22;5127;50.922;6.988;2022-08-18T14:45:28;29.50;48.40
10171;DHT22;5127;50.922;6.988;2022-08-18T14:47:56;29.50;48.20
10171;DHT22;5127;50.922;6.988;2022-08-18T14:50:23;29.50;48.20
10171;DHT22;5127;50.922;6.988;2022-08-18T14:52:51;29.50;48.00
10171;DHT22;5127;50.922;6.988;2022-08-18T14:55:19;29.50;47.80
10171;DHT22;5127;50.922;6.988;2022-08-18T14:57:46;29.50;47.80
10171;DHT22;5127;50.922;6.988;2022-08-18T15:00:16;29.50;47.90
10171;DHT22;5127;50.922;6.988;2022-08-18T15:02:46;29.40;47.60
10171;DHT22;5127;50.922;6.988;2022-08-18T15:05:14;29.40;47.50
10171;DHT22;5127;50.922;6.988;2022-08-18T15:07:43;29.40;47.50
10171;DHT22;5127;50.922;6.988;2022-08-18T15:10:12;29.40;47.50
10171;DHT22;5127;50.922;6.988;2022-08-18T15:12:40;29.40;47.50
10171;DHT22;5127;50.922;6.988;2022-08-18T15:15:14;29.40;47.60
10171;DHT22;5127;50.922;6.988;2022-08-18T15:17:42;29.30;47.50
10171;DHT22;5127;50.922;6.988;2022-08-18T15:20:11;29.30;47.50
10171;DHT22;5127;50.922;6.988;2022-08-18T15:22:39;29.30;47.60
10171;DHT22;5127;50.922;6.988;2022-08-18T15:25:24;29.30;47.50
10171;DHT22;5127;50.922;6.988;2022-08-18T15:28:12;29.30;47.30
10171;DHT22;5127;50.922;6.988;2022-08-18T15:30:43;29.30;47.20
10171;DHT22;5127;50.922;6.988;2022-08-18T15:33:10;29.20;47.30
10171;DHT22;5127;50.922;6.988;2022-08-18T15:35:40;29.20;47.20
10171;DHT22;5127;50.922;6.988;2022-08-18T15:38:08;29.10;47.20
10171;DHT22;5127;50.922;6.988;2022-08-18T15:40:38;29.20;47.20
10171;DHT22;5127;50.922;6.988;2022-08-18T15:43:12;29.10;47.20
10171;DHT22;5127;50.922;6.988;2022-08-18T15:45:41;29.20;47.00
10171;DHT22;5127;50.922;6.988;2022-08-18T15:48:13;29.10;46.90
10171;DHT22;5127;50.922;6.988;2022-08-18T15:50:42;29.10;46.80
10171;DHT22;5127;50.922;6.988;2022-08-18T15:53:14;29.00;46.70
10171;DHT22;5127;50.922;6.988;2022-08-18T15:55:43;29.00;46.70
10171;DHT22;5127;50.922;6.988;2022-08-18T15:58:11;29.00;46.70
10171;DHT22;5127;50.922;6.988;2022-08-18T16:00:41;29.00;46.70
10171;DHT22;5127;50.922;6.988;2022-08-18T16:03:10;29.00;46.60
10171;DHT22;5127;50.922;6.988;2022-08-18T16:05:40;29.00;46.70
10171;DHT22;5127;50.922;6.988;2022-08-18T16:08:09;29.00;46.60
10171;DHT22;5127;50.922;6.988;2022-08-18T16:10:39;29.00;46.40
10171;DHT22;5127;50.922;6.988;2022-08-18T16:13:07;29.00;46.40
10171;DHT22;5127;50.922;6.988;2022-08-18T16:15:36;29.00;46.40
10171;DHT22;5127;50.922;6.988;2022-08-18T16:18:05;29.00;46.40
10171;DHT22;5127;50.922;6.988;2022-08-18T16:20:33;28.90;46.40
10171;DHT22;5127;50.922;6.988;2022-08-18T16:23:01;28.90;46.40
10171;DHT22;5127;50.922;6.988;2022-08-18T16:25:30;28.80;46.30
10171;DHT22;5127;50.922;6.988;2022-08-18T16:27:58;28.80;46.40
10171;DHT22;5127;50.922;6.988;2022-08-18T16:30:27;28.70;46.40